Big Bay, Michigan
Current Conditions -  °F | °C
As of 12:50 PM on Friday 28 Nov 2014 (Local Time) from KSAW Reporting Station
Overcast Overcast  
Wind Chill:   Ceiling: 6000
Heat Index: 12°   Visibility: 10mi
Dew Point:   Wind: 6mph
Humidity: 73%   Direction: 200°SSW
Pressure: 30.05"   Gusts: NA
Location:  46.82°N, 87.73°W
Report Text: KSAW 281750Z 20005KT 10SM BKN060 BKN085 OVC090 M11/M15 A3005
Loading
Personal Weather Stations






























Interactive Weather Map New forecast layout! Learn more

10-Day Weather Forecast

Advertisements
Track Severe Weather on mobile